sensor_id;sensor_type;location;lat;lon;timestamp;pressure;altitude;pressure_sealevel;temperature;humidity
41945;BME280;63122;52.424;13.458;2023-02-20T00:00:52;101564.38;;;1.47;100.00
41945;BME280;63122;52.424;13.458;2023-02-20T00:02:50;101562.78;;;1.44;100.00
41945;BME280;63122;52.424;13.458;2023-02-20T00:04:47;101557.59;;;1.44;100.00
41945;BME280;63122;52.424;13.458;2023-02-20T00:06:43;101560.09;;;1.46;100.00
41945;BME280;63122;52.424;13.458;2023-02-20T00:08:39;101561.16;;;1.41;100.00
41945;BME280;63122;52.424;13.458;2023-02-20T00:10:37;101568.69;;;1.48;100.00
41945;BME280;63122;52.424;13.458;2023-02-20T00:12:32;101554.75;;;1.49;100.00
41945;BME280;63122;52.424;13.458;2023-02-20T00:14:28;101558.00;;;1.54;100.00
41945;BME280;63122;52.424;13.458;2023-02-20T00:16:23;101557.09;;;1.55;100.00
41945;BME280;63122;52.424;13.458;2023-02-20T00:18:19;101550.25;;;1.52;100.00
41945;BME280;63122;52.424;13.458;2023-02-20T00:20:14;101540.69;;;1.53;100.00
41945;BME280;63122;52.424;13.458;2023-02-20T00:22:12;101547.66;;;1.52;100.00
41945;BME280;63122;52.424;13.458;2023-02-20T00:24:07;101551.94;;;1.53;100.00
41945;BME280;63122;52.424;13.458;2023-02-20T00:26:07;101543.19;;;1.56;100.00
41945;BME280;63122;52.424;13.458;2023-02-20T00:28:06;101542.47;;;1.52;100.00
41945;BME280;63122;52.424;13.458;2023-02-20T00:30:02;101537.41;;;1.49;100.00
41945;BME280;63122;52.424;13.458;2023-02-20T00:31:59;101536.00;;;1.42;100.00
41945;BME280;63122;52.424;13.458;2023-02-20T00:33:55;101530.72;;;1.43;100.00
41945;BME280;63122;52.424;13.458;2023-02-20T00:35:50;101535.25;;;1.40;100.00
41945;BME280;63122;52.424;13.458;2023-02-20T00:37:45;101525.97;;;1.34;100.00
41945;BME280;63122;52.424;13.458;2023-02-20T00:39:41;101526.78;;;1.35;100.00
41945;BME280;63122;52.424;13.458;2023-02-20T00:41:39;101520.81;;;1.33;100.00
41945;BME280;63122;52.424;13.458;2023-02-20T00:43:34;101522.50;;;1.34;100.00
41945;BME280;63122;52.424;13.458;2023-02-20T00:45:29;101515.97;;;1.25;100.00
41945;BME280;63122;52.424;13.458;2023-02-20T00:47:25;101522.94;;;1.24;100.00
41945;BME280;63122;52.424;13.458;2023-02-20T00:49:20;101522.88;;;1.26;100.00
41945;BME280;63122;52.424;13.458;2023-02-20T00:51:15;101522.06;;;1.24;100.00
41945;BME280;63122;52.424;13.458;2023-02-20T00:53:10;101514.38;;;1.22;100.00
41945;BME280;63122;52.424;13.458;2023-02-20T00:55:06;101515.19;;;1.23;100.00
41945;BME280;63122;52.424;13.458;2023-02-20T00:57:04;101518.50;;;1.26;100.00
41945;BME280;63122;52.424;13.458;2023-02-20T00:58:59;101515.97;;;1.25;100.00
41945;BME280;63122;52.424;13.458;2023-02-20T01:00:54;101513.34;;;1.25;100.00
41945;BME280;63122;52.424;13.458;2023-02-20T01:02:49;101515.06;;;1.26;100.00
41945;BME280;63122;52.424;13.458;2023-02-20T01:04:44;101505.50;;;1.26;100.00
41945;BME280;63122;52.424;13.458;2023-02-20T01:06:40;101496.72;;;1.29;100.00
41945;BME280;63122;52.424;13.458;2023-02-20T01:08:35;101496.78;;;1.27;100.00
41945;BME280;63122;52.424;13.458;2023-02-20T01:10:30;101491.69;;;1.26;100.00
41945;BME280;63122;52.424;13.458;2023-02-20T01:12:28;101497.75;;;1.25;100.00
41945;BME280;63122;52.424;13.458;2023-02-20T01:14:23;101493.56;;;1.22;100.00
41945;BME280;63122;52.424;13.458;2023-02-20T01:16:19;101495.09;;;1.26;100.00
41945;BME280;63122;52.424;13.458;2023-02-20T01:18:14;101490.88;;;1.24;100.00
41945;BME280;63122;52.424;13.458;2023-02-20T01:20:10;101495.88;;;1.28;100.00
41945;BME280;63122;52.424;13.458;2023-02-20T01:22:05;101486.47;;;1.26;100.00
41945;BME280;63122;52.424;13.458;2023-02-20T01:24:00;101480.41;;;1.25;100.00
41945;BME280;63122;52.424;13.458;2023-02-20T01:25:55;101475.16;;;1.27;100.00
41945;BME280;63122;52.424;13.458;2023-02-20T01:27:53;101482.09;;;1.26;100.00
41945;BME280;63122;52.424;13.458;2023-02-20T01:29:48;101469.06;;;1.28;100.00
41945;BME280;63122;52.424;13.458;2023-02-20T01:31:47;101477.53;;;1.32;100.00
41945;BME280;63122;52.424;13.458;2023-02-20T01:33:43;101471.34;;;1.34;100.00
41945;BME280;63122;52.424;13.458;2023-02-20T01:35:38;101466.16;;;1.34;100.00
41945;BME280;63122;52.424;13.458;2023-02-20T01:37:33;101456.97;;;1.27;100.00
41945;BME280;63122;52.424;13.458;2023-02-20T01:39:29;101461.66;;;1.19;100.00
41945;BME280;63122;52.424;13.458;2023-02-20T01:41:24;101449.22;;;1.25;100.00
41945;BME280;63122;52.424;13.458;2023-02-20T01:43:22;101441.38;;;1.27;100.00
41945;BME280;63122;52.424;13.458;2023-02-20T01:45:24;101429.81;;;1.33;100.00
41945;BME280;63122;52.424;13.458;2023-02-20T01:47:22;101438.53;;;1.32;100.00
41945;BME280;63122;52.424;13.458;2023-02-20T01:49:26;101434.34;;;1.29;100.00
41945;BME280;63122;52.424;13.458;2023-02-20T01:51:22;101430.97;;;1.27;100.00
41945;BME280;63122;52.424;13.458;2023-02-20T01:53:20;101425.47;;;1.33;100.00
41945;BME280;63122;52.424;13.458;2023-02-20T01:55:19;101427.16;;;1.34;100.00
41945;BME280;63122;52.424;13.458;2023-02-20T01:57:19;101424.47;;;1.36;100.00
41945;BME280;63122;52.424;13.458;2023-02-20T01:59:19;101420.28;;;1.33;100.00
41945;BME280;63122;52.424;13.458;2023-02-20T02:01:13;101403.66;;;1.36;100.00
41945;BME280;63122;52.424;13.458;2023-02-20T02:03:11;101397.69;;;1.34;100.00
41945;BME280;63122;52.424;13.458;2023-02-20T02:05:07;101399.78;;;1.27;100.00
41945;BME280;63122;52.424;13.458;2023-02-20T02:07:04;101392.66;;;1.31;100.00
41945;BME280;63122;52.424;13.458;2023-02-20T02:09:06;101392.03;;;1.25;100.00
41945;BME280;63122;52.424;13.458;2023-02-20T02:11:05;101387.59;;;1.27;100.00
41945;BME280;63122;52.424;13.458;2023-02-20T02:13:02;101386.38;;;1.35;100.00
41945;BME280;63122;52.424;13.458;2023-02-20T02:15:01;101382.97;;;1.34;100.00
41945;BME280;63122;52.424;13.458;2023-02-20T02:17:10;101383.56;;;1.39;100.00
41945;BME280;63122;52.424;13.458;2023-02-20T02:19:12;101385.47;;;1.36;100.00
41945;BME280;63122;52.424;13.458;2023-02-20T02:26:39;101381.13;;;1.36;100.00
41945;BME280;63122;52.424;13.458;2023-02-20T02:29:08;101382.59;;;1.42;100.00
41945;BME280;63122;52.424;13.458;2023-02-20T02:34:02;101379.13;;;1.41;100.00
41945;BME280;63122;52.424;13.458;2023-02-20T02:36:34;101379.09;;;1.43;100.00
41945;BME280;63122;52.424;13.458;2023-02-20T02:38:35;101378.16;;;1.44;100.00
41945;BME280;63122;52.424;13.458;2023-02-20T02:40:40;101364.25;;;1.45;100.00
41945;BME280;63122;52.424;13.458;2023-02-20T02:42:40;101363.78;;;1.54;100.00
41945;BME280;63122;52.424;13.458;2023-02-20T02:44:43;101353.97;;;1.60;100.00
41945;BME280;63122;52.424;13.458;2023-02-20T02:46:42;101357.66;;;1.55;100.00
41945;BME280;63122;52.424;13.458;2023-02-20T02:48:45;101348.72;;;1.61;100.00
41945;BME280;63122;52.424;13.458;2023-02-20T02:50:44;101343.38;;;1.64;100.00
41945;BME280;63122;52.424;13.458;2023-02-20T02:52:43;101341.31;;;1.71;100.00
41945;BME280;63122;52.424;13.458;2023-02-20T02:54:42;101344.81;;;1.70;100.00
41945;BME280;63122;52.424;13.458;2023-02-20T02:56:39;101336.69;;;1.76;100.00
41945;BME280;63122;52.424;13.458;2023-02-20T02:58:36;101337.09;;;1.86;100.00
41945;BME280;63122;52.424;13.458;2023-02-20T03:00:34;101342.13;;;1.89;100.00
41945;BME280;63122;52.424;13.458;2023-02-20T03:02:35;101334.06;;;1.94;100.00
41945;BME280;63122;52.424;13.458;2023-02-20T03:04:33;101333.00;;;1.98;100.00
41945;BME280;63122;52.424;13.458;2023-02-20T03:06:33;101330.25;;;2.01;100.00
41945;BME280;63122;52.424;13.458;2023-02-20T03:08:33;101335.28;;;2.04;100.00
41945;BME280;63122;52.424;13.458;2023-02-20T03:10:41;101325.47;;;2.09;100.00
41945;BME280;63122;52.424;13.458;2023-02-20T03:12:40;101328.94;;;2.10;100.00
41945;BME280;63122;52.424;13.458;2023-02-20T03:14:41;101323.63;;;2.11;100.00
41945;BME280;63122;52.424;13.458;2023-02-20T03:16:55;101326.22;;;2.11;100.00
41945;BME280;63122;52.424;13.458;2023-02-20T03:18:54;101318.19;;;2.16;100.00
41945;BME280;63122;52.424;13.458;2023-02-20T03:20:54;101322.53;;;2.15;100.00
41945;BME280;63122;52.424;13.458;2023-02-20T03:22:52;101302.47;;;2.18;100.00
41945;BME280;63122;52.424;13.458;2023-02-20T03:24:53;101310.97;;;2.21;100.00
41945;BME280;63122;52.424;13.458;2023-02-20T03:26:51;101300.63;;;2.20;100.00
41945;BME280;63122;52.424;13.458;2023-02-20T03:28:51;101304.09;;;2.20;100.00
41945;BME280;63122;52.424;13.458;2023-02-20T03:30:51;101290.03;;;2.23;100.00
41945;BME280;63122;52.424;13.458;2023-02-20T03:32:52;101290.84;;;2.25;100.00
41945;BME280;63122;52.424;13.458;2023-02-20T03:35:04;101284.78;;;2.24;100.00
41945;BME280;63122;52.424;13.458;2023-02-20T03:37:16;101279.31;;;2.29;100.00
41945;BME280;63122;52.424;13.458;2023-02-20T03:39:29;101271.34;;;2.32;100.00
41945;BME280;63122;52.424;13.458;2023-02-20T03:41:42;101274.13;;;2.29;100.00
41945;BME280;63122;52.424;13.458;2023-02-20T03:43:52;101274.13;;;2.29;100.00
41945;BME280;63122;52.424;13.458;2023-02-20T03:45:48;101272.16;;;2.33;100.00
41945;BME280;63122;52.424;13.458;2023-02-20T03:47:46;101272.16;;;2.33;100.00
41945;BME280;63122;52.424;13.458;2023-02-20T03:49:45;101275.38;;;2.38;100.00
41945;BME280;63122;52.424;13.458;2023-02-20T03:51:54;101270.94;;;2.40;100.00
41945;BME280;63122;52.424;13.458;2023-02-20T03:53:50;101274.13;;;2.45;100.00
41945;BME280;63122;52.424;13.458;2023-02-20T03:55:47;101270.44;;;2.49;100.00
41945;BME280;63122;52.424;13.458;2023-02-20T03:57:49;101284.28;;;2.50;100.00
41945;BME280;63122;52.424;13.458;2023-02-20T03:59:47;101277.91;;;2.55;100.00
41945;BME280;63122;52.424;13.458;2023-02-20T04:01:48;101277.72;;;2.58;100.00
41945;BME280;63122;52.424;13.458;2023-02-20T04:03:46;101277.53;;;2.62;100.00
41945;BME280;63122;52.424;13.458;2023-02-20T04:05:46;101293.09;;;2.63;100.00
41945;BME280;63122;52.424;13.458;2023-02-20T04:07:47;101283.44;;;2.65;100.00
41945;BME280;63122;52.424;13.458;2023-02-20T04:09:45;101280.66;;;2.68;100.00
41945;BME280;63122;52.424;13.458;2023-02-20T04:11:44;101281.34;;;2.72;100.00
41945;BME280;63122;52.424;13.458;2023-02-20T04:13:43;101265.72;;;2.72;100.00
41945;BME280;63122;52.424;13.458;2023-02-20T04:15:39;101281.91;;;2.77;100.00
41945;BME280;63122;52.424;13.458;2023-02-20T04:17:39;101270.56;;;2.78;100.00
41945;BME280;63122;52.424;13.458;2023-02-20T04:19:38;101271.41;;;2.79;100.00
41945;BME280;63122;52.424;13.458;2023-02-20T04:21:38;101257.38;;;2.81;100.00
41945;BME280;63122;52.424;13.458;2023-02-20T04:23:39;101263.25;;;2.85;100.00
41945;BME280;63122;52.424;13.458;2023-02-20T04:25:39;101260.38;;;2.90;100.00
41945;BME280;63122;52.424;13.458;2023-02-20T04:27:36;101250.13;;;2.86;100.00
41945;BME280;63122;52.424;13.458;2023-02-20T04:29:34;101243.06;;;2.88;100.00
41945;BME280;63122;52.424;13.458;2023-02-20T04:31:29;101243.81;;;2.91;100.00
41945;BME280;63122;52.424;13.458;2023-02-20T04:33:24;101245.41;;;2.93;100.00
41945;BME280;63122;52.424;13.458;2023-02-20T04:35:20;101238.44;;;2.94;100.00
41945;BME280;63122;52.424;13.458;2023-02-20T04:37:17;101248.69;;;2.97;100.00
41945;BME280;63122;52.424;13.458;2023-02-20T04:39:12;101244.22;;;2.99;100.00
41945;BME280;63122;52.424;13.458;2023-02-20T04:41:08;101226.81;;;2.99;100.00
41945;BME280;63122;52.424;13.458;2023-02-20T04:43:03;101224.00;;;3.02;100.00
41945;BME280;63122;52.424;13.458;2023-02-20T04:45:01;101222.28;;;3.03;100.00
41945;BME280;63122;52.424;13.458;2023-02-20T04:46:56;101226.56;;;3.04;100.00
41945;BME280;63122;52.424;13.458;2023-02-20T04:48:52;101211.72;;;3.05;100.00
41945;BME280;63122;52.424;13.458;2023-02-20T04:50:47;101214.44;;;3.03;100.00
41945;BME280;63122;52.424;13.458;2023-02-20T04:52:42;101223.84;;;3.06;100.00
41945;BME280;63122;52.424;13.458;2023-02-20T04:54:37;101239.31;;;3.09;100.00
41945;BME280;63122;52.424;13.458;2023-02-20T04:56:32;101206.19;;;3.11;100.00
41945;BME280;63122;52.424;13.458;2023-02-20T04:58:28;101220.91;;;3.12;100.00
41945;BME280;63122;52.424;13.458;2023-02-20T05:00:27;101212.16;;;3.13;100.00
41945;BME280;63122;52.424;13.458;2023-02-20T05:02:23;101206.00;;;3.14;100.00
41945;BME280;63122;52.424;13.458;2023-02-20T05:04:19;101197.25;;;3.15;100.00
41945;BME280;63122;52.424;13.458;2023-02-20T05:06:14;101187.66;;;3.15;100.00
41945;BME280;63122;52.424;13.458;2023-02-20T05:08:10;101188.31;;;3.19;100.00
41945;BME280;63122;52.424;13.458;2023-02-20T05:10:06;101174.34;;;3.20;100.00
41945;BME280;63122;52.424;13.458;2023-02-20T05:12:01;101194.34;;;3.20;100.00
41945;BME280;63122;52.424;13.458;2023-02-20T05:13:57;101172.56;;;3.21;100.00
41945;BME280;63122;52.424;13.458;2023-02-20T05:15:55;101166.25;;;3.25;100.00
41945;BME280;63122;52.424;13.458;2023-02-20T05:17:50;101160.13;;;3.26;100.00
41945;BME280;63122;52.424;13.458;2023-02-20T05:19:46;101162.53;;;3.29;100.00
41945;BME280;63122;52.424;13.458;2023-02-20T05:21:41;101149.97;;;3.36;100.00
41945;BME280;63122;52.424;13.458;2023-02-20T05:23:49;101152.72;;;3.33;100.00
41945;BME280;63122;52.424;13.458;2023-02-20T05:25:44;101155.28;;;3.34;100.00
41945;BME280;63122;52.424;13.458;2023-02-20T05:27:40;101149.97;;;3.36;100.00
41945;BME280;63122;52.424;13.458;2023-02-20T05:29:35;101145.38;;;3.39;100.00
41945;BME280;63122;52.424;13.458;2023-02-20T05:31:33;101148.00;;;3.39;100.00
41945;BME280;63122;52.424;13.458;2023-02-20T05:33:28;101154.06;;;3.40;100.00
41945;BME280;63122;52.424;13.458;2023-02-20T05:35:24;101148.75;;;3.41;100.00
41945;BME280;63122;52.424;13.458;2023-02-20T05:37:21;101151.28;;;3.43;100.00
41945;BME280;63122;52.424;13.458;2023-02-20T05:39:16;101153.88;;;3.43;100.00
41945;BME280;63122;52.424;13.458;2023-02-20T05:41:11;101146.53;;;3.50;100.00
41945;BME280;63122;52.424;13.458;2023-02-20T05:43:06;101160.59;;;3.47;100.00
41945;BME280;63122;52.424;13.458;2023-02-20T05:45:02;101140.47;;;3.49;100.00
41945;BME280;63122;52.424;13.458;2023-02-20T05:47:00;101153.41;;;3.51;100.00
41945;BME280;63122;52.424;13.458;2023-02-20T05:48:55;101136.91;;;3.50;100.00
41945;BME280;63122;52.424;13.458;2023-02-20T05:50:50;101128.16;;;3.51;100.00
41945;BME280;63122;52.424;13.458;2023-02-20T05:52:46;101133.28;;;3.53;100.00
41945;BME280;63122;52.424;13.458;2023-02-20T05:54:41;101135.16;;;3.51;100.00
41945;BME280;63122;52.424;13.458;2023-02-20T05:56:40;101135.97;;;3.51;100.00
41945;BME280;63122;52.424;13.458;2023-02-20T05:58:35;101125.34;;;3.54;100.00
41945;BME280;63122;52.424;13.458;2023-02-20T06:00:30;101127.03;;;3.55;100.00
41945;BME280;63122;52.424;13.458;2023-02-20T06:02:30;101107.00;;;3.56;100.00
41945;BME280;63122;52.424;13.458;2023-02-20T06:04:26;101117.53;;;3.54;100.00
41945;BME280;63122;52.424;13.458;2023-02-20T06:06:22;101114.72;;;3.57;100.00
41945;BME280;63122;52.424;13.458;2023-02-20T06:08:17;101110.56;;;3.55;100.00
41945;BME280;63122;52.424;13.458;2023-02-20T06:10:14;101103.47;;;3.57;100.00
41945;BME280;63122;52.424;13.458;2023-02-20T06:12:10;101113.06;;;3.56;100.00
41945;BME280;63122;52.424;13.458;2023-02-20T06:14:06;101101.69;;;3.57;100.00
41945;BME280;63122;52.424;13.458;2023-02-20T06:16:01;101090.22;;;3.60;100.00
41945;BME280;63122;52.424;13.458;2023-02-20T06:17:59;101077.19;;;3.60;100.00
41945;BME280;63122;52.424;13.458;2023-02-20T06:19:54;101079.69;;;3.62;100.00
41945;BME280;63122;52.424;13.458;2023-02-20T06:21:50;101070.09;;;3.62;100.00
41945;BME280;63122;52.424;13.458;2023-02-20T06:23:46;101064.88;;;3.62;100.00
41945;BME280;63122;52.424;13.458;2023-02-20T06:25:41;101069.06;;;3.65;100.00
41945;BME280;63122;52.424;13.458;2023-02-20T06:27:39;101068.13;;;3.66;100.00
41945;BME280;63122;52.424;13.458;2023-02-20T06:29:34;101053.31;;;3.66;100.00
41945;BME280;63122;52.424;13.458;2023-02-20T06:31:29;101081.06;;;3.67;100.00
41945;BME280;63122;52.424;13.458;2023-02-20T06:33:27;101079.00;;;3.72;100.00
41945;BME280;63122;52.424;13.458;2023-02-20T06:35:23;101068.56;;;3.72;100.00
41945;BME280;63122;52.424;13.458;2023-02-20T06:37:17;101070.81;;;3.79;100.00
41945;BME280;63122;52.424;13.458;2023-02-20T06:39:13;101076.97;;;3.78;100.00
41945;BME280;63122;52.424;13.458;2023-02-20T06:41:08;101062.03;;;3.80;100.00
41945;BME280;63122;52.424;13.458;2023-02-20T06:43:03;101058.19;;;3.85;100.00
41945;BME280;63122;52.424;13.458;2023-02-20T06:44:58;101067.69;;;3.86;100.00
41945;BME280;63122;52.424;13.458;2023-02-20T06:46:54;101052.88;;;3.87;100.00
41945;BME280;63122;52.424;13.458;2023-02-20T06:48:53;101044.94;;;3.88;100.00
41945;BME280;63122;52.424;13.458;2023-02-20T06:50:49;101070.00;;;3.91;100.00
41945;BME280;63122;52.424;13.458;2023-02-20T06:52:47;101075.97;;;3.93;100.00
41945;BME280;63122;52.424;13.458;2023-02-20T06:54:42;101085.41;;;3.96;100.00
41945;BME280;63122;52.424;13.458;2023-02-20T06:56:38;101067.94;;;3.96;100.00
41945;BME280;63122;52.424;13.458;2023-02-20T06:58:33;101048.94;;;3.94;100.00
41945;BME280;63122;52.424;13.458;2023-02-20T07:00:28;101043.50;;;3.97;100.00
41945;BME280;63122;52.424;13.458;2023-02-20T07:02:24;101053.47;;;4.05;100.00
41945;BME280;63122;52.424;13.458;2023-02-20T07:04:23;101048.25;;;4.05;100.00
41945;BME280;63122;52.424;13.458;2023-02-20T07:06:20;101057.00;;;4.04;100.00
41945;BME280;63122;52.424;13.458;2023-02-20T07:08:15;101053.25;;;4.08;100.00
41945;BME280;63122;52.424;13.458;2023-02-20T07:10:10;101044.41;;;4.11;100.00
41945;BME280;63122;52.424;13.458;2023-02-20T07:12:06;101036.56;;;4.11;100.00
41945;BME280;63122;52.424;13.458;2023-02-20T07:14:01;101041.69;;;4.12;100.00
41945;BME280;63122;52.424;13.458;2023-02-20T07:15:56;101034.28;;;4.19;100.00
41945;BME280;63122;52.424;13.458;2023-02-20T07:17:51;101039.50;;;4.19;100.00
41945;BME280;63122;52.424;13.458;2023-02-20T07:19:50;101004.41;;;4.23;100.00
41945;BME280;63122;52.424;13.458;2023-02-20T07:21:45;101019.25;;;4.23;100.00
41945;BME280;63122;52.424;13.458;2023-02-20T07:23:43;101014.66;;;4.26;100.00
41945;BME280;63122;52.424;13.458;2023-02-20T07:25:38;101018.94;;;4.27;100.00
41945;BME280;63122;52.424;13.458;2023-02-20T07:27:33;101018.00;;;4.28;100.00
41945;BME280;63122;52.424;13.458;2023-02-20T07:29:29;101031.91;;;4.29;100.00
41945;BME280;63122;52.424;13.458;2023-02-20T07:31:24;101012.03;;;4.26;100.00
41945;BME280;63122;52.424;13.458;2023-02-20T07:33:19;100990.41;;;4.24;100.00
41945;BME280;63122;52.424;13.458;2023-02-20T07:35:17;101014.78;;;4.25;100.00
41945;BME280;63122;52.424;13.458;2023-02-20T07:37:12;101031.19;;;4.27;100.00
41945;BME280;63122;52.424;13.458;2023-02-20T07:39:09;101042.34;;;4.29;100.00
41945;BME280;63122;52.424;13.458;2023-02-20T07:41:05;101024.91;;;4.29;100.00
41945;BME280;63122;52.424;13.458;2023-02-20T07:43:00;101029.28;;;4.29;100.00
41945;BME280;63122;52.424;13.458;2023-02-20T07:44:55;101023.00;;;4.31;100.00
41945;BME280;63122;52.424;13.458;2023-02-20T07:46:50;101014.25;;;4.32;100.00
41945;BME280;63122;52.424;13.458;2023-02-20T07:48:46;101006.31;;;4.34;100.00
41945;BME280;63122;52.424;13.458;2023-02-20T07:50:43;100999.31;;;4.35;100.00
41945;BME280;63122;52.424;13.458;2023-02-20T07:52:39;100993.97;;;4.36;100.00
41945;BME280;63122;52.424;13.458;2023-02-20T07:54:34;101000.66;;;4.40;100.00
41945;BME280;63122;52.424;13.458;2023-02-20T07:56:29;100985.72;;;4.42;100.00
41945;BME280;63122;52.424;13.458;2023-02-20T07:58:24;100985.72;;;4.42;100.00
41945;BME280;63122;52.424;13.458;2023-02-20T08:00:20;100978.63;;;4.44;100.00
41945;BME280;63122;52.424;13.458;2023-02-20T08:02:15;100978.31;;;4.49;100.00
41945;BME280;63122;52.424;13.458;2023-02-20T08:04:11;100974.66;;;4.52;100.00
41945;BME280;63122;52.424;13.458;2023-02-20T08:06:08;100979.34;;;4.59;100.00
41945;BME280;63122;52.424;13.458;2023-02-20T08:08:04;100981.16;;;4.59;100.00
41945;BME280;63122;52.424;13.458;2023-02-20T08:09:59;100988.69;;;4.64;100.00
41945;BME280;63122;52.424;13.458;2023-02-20T08:11:55;100974.56;;;4.66;100.00
41945;BME280;63122;52.424;13.458;2023-02-20T08:13:50;100988.03;;;4.73;100.00
41945;BME280;63122;52.424;13.458;2023-02-20T08:15:47;100959.72;;;4.80;100.00
41945;BME280;63122;52.424;13.458;2023-02-20T08:17:42;100943.16;;;4.79;100.00
41945;BME280;63122;52.424;13.458;2023-02-20T08:19:38;100934.91;;;4.85;100.00
41945;BME280;63122;52.424;13.458;2023-02-20T08:21:36;100945.25;;;4.87;100.00
41945;BME280;63122;52.424;13.458;2023-02-20T08:23:31;100926.97;;;4.87;100.00
41945;BME280;63122;52.424;13.458;2023-02-20T08:25:26;100921.81;;;4.85;100.00
41945;BME280;63122;52.424;13.458;2023-02-20T08:27:22;100919.94;;;4.87;100.00
41945;BME280;63122;52.424;13.458;2023-02-20T08:29:18;100922.47;;;4.89;100.00
41945;BME280;63122;52.424;13.458;2023-02-20T08:31:13;100944.72;;;4.95;100.00
41945;BME280;63122;52.424;13.458;2023-02-20T08:33:23;100914.91;;;4.97;100.00
41945;BME280;63122;52.424;13.458;2023-02-20T08:35:19;100909.56;;;4.99;100.00
41945;BME280;63122;52.424;13.458;2023-02-20T08:37:18;100908.41;;;5.03;100.00
41945;BME280;63122;52.424;13.458;2023-02-20T08:39:13;100909.13;;;5.05;100.00
41945;BME280;63122;52.424;13.458;2023-02-20T08:41:10;100917.09;;;5.03;100.00
41945;BME280;63122;52.424;13.458;2023-02-20T08:43:06;100907.25;;;5.07;100.00
41945;BME280;63122;52.424;13.458;2023-02-20T08:45:02;100896.56;;;5.10;100.00
41945;BME280;63122;52.424;13.458;2023-02-20T08:46:58;100889.56;;;5.11;100.00
41945;BME280;63122;52.424;13.458;2023-02-20T08:48:53;100889.81;;;5.19;100.00
41945;BME280;63122;52.424;13.458;2023-02-20T08:50:48;100876.66;;;5.21;100.00
41945;BME280;63122;52.424;13.458;2023-02-20T08:52:46;100897.13;;;5.27;100.00
41945;BME280;63122;52.424;13.458;2023-02-20T08:54:43;100864.78;;;5.28;100.00
41945;BME280;63122;52.424;13.458;2023-02-20T08:56:40;100885.50;;;5.31;100.00
41945;BME280;63122;52.424;13.458;2023-02-20T08:58:36;100864.25;;;5.36;100.00
41945;BME280;63122;52.424;13.458;2023-02-20T09:00:31;100865.06;;;5.36;100.00
41945;BME280;63122;52.424;13.458;2023-02-20T09:02:26;100863.31;;;5.48;100.00
41945;BME280;63122;52.424;13.458;2023-02-20T09:04:22;100875.59;;;5.47;100.00
41945;BME280;63122;52.424;13.458;2023-02-20T09:06:17;100846.81;;;5.59;100.00
41945;BME280;63122;52.424;13.458;2023-02-20T09:08:15;100892.03;;;5.61;100.00
41945;BME280;63122;52.424;13.458;2023-02-20T09:10:11;100836.75;;;5.66;100.00
41945;BME280;63122;52.424;13.458;2023-02-20T09:12:07;100833.03;;;5.68;100.00
41945;BME280;63122;52.424;13.458;2023-02-20T09:14:03;100840.56;;;5.73;100.00
41945;BME280;63122;52.424;13.458;2023-02-20T09:15:58;100821.28;;;5.74;100.00
41945;BME280;63122;52.424;13.458;2023-02-20T09:17:54;100827.94;;;5.78;100.00
41945;BME280;63122;52.424;13.458;2023-02-20T09:19:49;100814.75;;;5.80;100.00
41945;BME280;63122;52.424;13.458;2023-02-20T09:21:44;100810.94;;;5.84;100.00
41945;BME280;63122;52.424;13.458;2023-02-20T09:23:42;100817.59;;;5.88;100.00
41945;BME280;63122;52.424;13.458;2023-02-20T09:25:37;100807.13;;;5.88;100.00
41945;BME280;63122;52.424;13.458;2023-02-20T09:27:32;100804.41;;;5.89;100.00
41945;BME280;63122;52.424;13.458;2023-02-20T09:29:28;100804.41;;;5.89;100.00
41945;BME280;63122;52.424;13.458;2023-02-20T09:31:23;100785.13;;;5.90;100.00
41945;BME280;63122;52.424;13.458;2023-02-20T09:33:19;100768.94;;;5.97;100.00
41945;BME280;63122;52.424;13.458;2023-02-20T09:35:16;100771.25;;;6.01;100.00
41945;BME280;63122;52.424;13.458;2023-02-20T09:37:13;100779.91;;;6.02;100.00
41945;BME280;63122;52.424;13.458;2023-02-20T09:39:11;100766.47;;;6.07;100.00
41945;BME280;63122;52.424;13.458;2023-02-20T09:41:17;100768.38;;;6.04;100.00
41945;BME280;63122;52.424;13.458;2023-02-20T09:43:24;100763.47;;;6.11;100.00
41945;BME280;63122;52.424;13.458;2023-02-20T09:45:24;100747.41;;;6.16;100.00
41945;BME280;63122;52.424;13.458;2023-02-20T09:47:29;100791.84;;;6.17;100.00
41945;BME280;63122;52.424;13.458;2023-02-20T09:49:29;100786.22;;;6.22;100.00
41945;BME280;63122;52.424;13.458;2023-02-20T09:51:30;100741.44;;;6.25;100.00
41945;BME280;63122;52.424;13.458;2023-02-20T09:53:31;100732.50;;;6.28;100.00
41945;BME280;63122;52.424;13.458;2023-02-20T09:55:34;100760.97;;;6.32;100.00
41945;BME280;63122;52.424;13.458;2023-02-20T09:57:31;100738.91;;;6.35;100.00
41945;BME280;63122;52.424;13.458;2023-02-20T09:59:29;100734.28;;;6.39;100.00
41945;BME280;63122;52.424;13.458;2023-02-20T10:01:27;100732.00;;;6.45;100.00
41945;BME280;63122;52.424;13.458;2023-02-20T10:03:27;100757.81;;;6.50;100.00
41945;BME280;63122;52.424;13.458;2023-02-20T10:05:28;100720.66;;;6.56;100.00
41945;BME280;63122;52.424;13.458;2023-02-20T10:07:27;100733.28;;;6.62;100.00
41945;BME280;63122;52.424;13.458;2023-02-20T10:09:23;100742.28;;;6.70;100.00
41945;BME280;63122;52.424;13.458;2023-02-20T10:11:30;100743.44;;;6.77;100.00
41945;BME280;63122;52.424;13.458;2023-02-20T10:13:40;100728.91;;;6.84;100.00
41945;BME280;63122;52.424;13.458;2023-02-20T10:15:43;100736.97;;;6.93;100.00